sensor_id;sensor_type;location;lat;lon;timestamp;P1;durP1;ratioP1;P2;durP2;ratioP2
1799;SDS011;919;48.274;12.292;2023-09-18T00:02:00;6.00;;;5.50;;
1799;SDS011;919;48.274;12.292;2023-09-18T00:04:27;6.23;;;5.67;;
1799;SDS011;919;48.274;12.292;2023-09-18T00:06:53;7.60;;;6.90;;
1799;SDS011;919;48.274;12.292;2023-09-18T00:09:21;11.60;;;7.40;;
1799;SDS011;919;48.274;12.292;2023-09-18T00:11:48;8.20;;;7.50;;
1799;SDS011;919;48.274;12.292;2023-09-18T00:14:15;8.03;;;7.33;;
1799;SDS011;919;48.274;12.292;2023-09-18T00:16:42;8.13;;;7.43;;
1799;SDS011;919;48.274;12.292;2023-09-18T00:19:08;6.80;;;6.20;;
1799;SDS011;919;48.274;12.292;2023-09-18T00:21:35;7.83;;;7.13;;
1799;SDS011;919;48.274;12.292;2023-09-18T00:24:02;6.67;;;6.10;;
1799;SDS011;919;48.274;12.292;2023-09-18T00:26:31;6.97;;;6.33;;
1799;SDS011;919;48.274;12.292;2023-09-18T00:28:57;5.30;;;4.90;;
1799;SDS011;919;48.274;12.292;2023-09-18T00:31:24;5.30;;;4.90;;
1799;SDS011;919;48.274;12.292;2023-09-18T00:33:51;6.20;;;5.70;;
1799;SDS011;919;48.274;12.292;2023-09-18T00:36:17;5.67;;;5.17;;
1799;SDS011;919;48.274;12.292;2023-09-18T00:38:44;5.80;;;5.30;;
1799;SDS011;919;48.274;12.292;2023-09-18T00:41:11;5.70;;;5.20;;
1799;SDS011;919;48.274;12.292;2023-09-18T00:43:39;5.23;;;4.73;;
1799;SDS011;919;48.274;12.292;2023-09-18T00:46:06;6.47;;;5.87;;
1799;SDS011;919;48.274;12.292;2023-09-18T00:48:34;6.90;;;5.70;;
1799;SDS011;919;48.274;12.292;2023-09-18T00:51:01;7.10;;;6.50;;
1799;SDS011;919;48.274;12.292;2023-09-18T00:53:28;8.00;;;7.30;;
1799;SDS011;919;48.274;12.292;2023-09-18T00:55:56;8.87;;;8.07;;
1799;SDS011;919;48.274;12.292;2023-09-18T00:58:26;7.10;;;6.50;;
1799;SDS011;919;48.274;12.292;2023-09-18T01:00:54;8.77;;;7.97;;
1799;SDS011;919;48.274;12.292;2023-09-18T01:03:21;8.43;;;7.63;;
1799;SDS011;919;48.274;12.292;2023-09-18T01:05:50;7.10;;;6.40;;
1799;SDS011;919;48.274;12.292;2023-09-18T01:08:17;6.37;;;5.77;;
1799;SDS011;919;48.274;12.292;2023-09-18T01:10:44;7.57;;;6.97;;
1799;SDS011;919;48.274;12.292;2023-09-18T01:13:21;7.03;;;6.33;;
1799;SDS011;919;48.274;12.292;2023-09-18T01:15:52;7.77;;;7.07;;
1799;SDS011;919;48.274;12.292;2023-09-18T01:18:24;9.70;;;8.80;;
1799;SDS011;919;48.274;12.292;2023-09-18T01:20:50;8.10;;;7.40;;
1799;SDS011;919;48.274;12.292;2023-09-18T01:23:18;8.30;;;7.60;;
1799;SDS011;919;48.274;12.292;2023-09-18T01:25:45;8.10;;;7.30;;
1799;SDS011;919;48.274;12.292;2023-09-18T01:28:12;8.47;;;7.60;;
1799;SDS011;919;48.274;12.292;2023-09-18T01:30:38;8.57;;;7.77;;
1799;SDS011;919;48.274;12.292;2023-09-18T01:33:05;8.60;;;7.80;;
1799;SDS011;919;48.274;12.292;2023-09-18T01:35:33;7.93;;;7.03;;
1799;SDS011;919;48.274;12.292;2023-09-18T01:38:01;6.97;;;6.37;;
1799;SDS011;919;48.274;12.292;2023-09-18T01:40:29;8.83;;;7.90;;
1799;SDS011;919;48.274;12.292;2023-09-18T01:42:57;8.67;;;7.87;;
1799;SDS011;919;48.274;12.292;2023-09-18T01:45:24;10.20;;;9.10;;
1799;SDS011;919;48.274;12.292;2023-09-18T01:47:51;9.23;;;8.13;;
1799;SDS011;919;48.274;12.292;2023-09-18T01:50:17;10.73;;;8.77;;
1799;SDS011;919;48.274;12.292;2023-09-18T01:52:44;9.80;;;8.90;;
1799;SDS011;919;48.274;12.292;2023-09-18T01:55:11;10.63;;;9.00;;
1799;SDS011;919;48.274;12.292;2023-09-18T01:57:39;12.17;;;10.20;;
1799;SDS011;919;48.274;12.292;2023-09-18T02:00:08;10.17;;;9.17;;
1799;SDS011;919;48.274;12.292;2023-09-18T02:02:35;10.93;;;9.83;;
1799;SDS011;919;48.274;12.292;2023-09-18T02:05:02;10.97;;;9.20;;
1799;SDS011;919;48.274;12.292;2023-09-18T02:07:29;9.93;;;8.97;;
1799;SDS011;919;48.274;12.292;2023-09-18T02:09:56;10.47;;;9.47;;
1799;SDS011;919;48.274;12.292;2023-09-18T02:12:23;9.93;;;8.93;;
1799;SDS011;919;48.274;12.292;2023-09-18T02:14:51;11.10;;;10.03;;
1799;SDS011;919;48.274;12.292;2023-09-18T02:17:18;11.73;;;10.53;;
1799;SDS011;919;48.274;12.292;2023-09-18T02:19:45;11.70;;;10.50;;
1799;SDS011;919;48.274;12.292;2023-09-18T02:22:12;16.40;;;9.83;;
1799;SDS011;919;48.274;12.292;2023-09-18T02:24:38;10.67;;;9.53;;
1799;SDS011;919;48.274;12.292;2023-09-18T02:27:05;10.70;;;9.70;;
1799;SDS011;919;48.274;12.292;2023-09-18T02:29:32;9.63;;;8.73;;
1799;SDS011;919;48.274;12.292;2023-09-18T02:32:00;8.30;;;7.50;;
1799;SDS011;919;48.274;12.292;2023-09-18T02:34:27;8.20;;;7.40;;
1799;SDS011;919;48.274;12.292;2023-09-18T02:36:54;7.77;;;7.00;;
1799;SDS011;919;48.274;12.292;2023-09-18T02:39:20;10.03;;;9.00;;
1799;SDS011;919;48.274;12.292;2023-09-18T02:41:47;8.30;;;7.50;;
1799;SDS011;919;48.274;12.292;2023-09-18T02:44:14;9.17;;;8.27;;
1799;SDS011;919;48.274;12.292;2023-09-18T02:46:41;10.27;;;9.20;;
1799;SDS011;919;48.274;12.292;2023-09-18T02:49:09;9.80;;;8.90;;
1799;SDS011;919;48.274;12.292;2023-09-18T02:51:36;9.50;;;8.40;;
1799;SDS011;919;48.274;12.292;2023-09-18T02:54:03;11.43;;;10.23;;
1799;SDS011;919;48.274;12.292;2023-09-18T02:56:30;11.33;;;10.23;;
1799;SDS011;919;48.274;12.292;2023-09-18T02:58:57;10.17;;;9.17;;
1799;SDS011;919;48.274;12.292;2023-09-18T03:01:23;9.03;;;8.13;;
1799;SDS011;919;48.274;12.292;2023-09-18T03:03:50;8.23;;;7.50;;
1799;SDS011;919;48.274;12.292;2023-09-18T03:06:18;9.53;;;8.60;;
1799;SDS011;919;48.274;12.292;2023-09-18T03:08:45;9.67;;;8.70;;
1799;SDS011;919;48.274;12.292;2023-09-18T03:11:12;9.30;;;8.47;;
1799;SDS011;919;48.274;12.292;2023-09-18T03:13:42;8.30;;;7.60;;
1799;SDS011;919;48.274;12.292;2023-09-18T03:16:10;8.00;;;7.20;;
1799;SDS011;919;48.274;12.292;2023-09-18T03:18:37;8.07;;;7.37;;
1799;SDS011;919;48.274;12.292;2023-09-18T03:21:04;12.70;;;6.80;;
1799;SDS011;919;48.274;12.292;2023-09-18T03:23:32;11.70;;;7.53;;
1799;SDS011;919;48.274;12.292;2023-09-18T03:25:59;21.27;;;9.40;;
1799;SDS011;919;48.274;12.292;2023-09-18T03:28:25;23.83;;;7.70;;
1799;SDS011;919;48.274;12.292;2023-09-18T03:30:52;18.33;;;7.67;;
1799;SDS011;919;48.274;12.292;2023-09-18T03:33:19;7.63;;;7.00;;
1799;SDS011;919;48.274;12.292;2023-09-18T03:35:46;8.87;;;7.97;;
1799;SDS011;919;48.274;12.292;2023-09-18T03:38:14;9.10;;;8.27;;
1799;SDS011;919;48.274;12.292;2023-09-18T03:40:42;9.70;;;8.70;;
1799;SDS011;919;48.274;12.292;2023-09-18T03:43:09;11.80;;;9.33;;
1799;SDS011;919;48.274;12.292;2023-09-18T03:45:37;12.20;;;9.60;;
1799;SDS011;919;48.274;12.292;2023-09-18T03:48:04;10.17;;;9.17;;
1799;SDS011;919;48.274;12.292;2023-09-18T03:50:31;12.43;;;10.53;;
1799;SDS011;919;48.274;12.292;2023-09-18T03:52:57;10.13;;;9.13;;
1799;SDS011;919;48.274;12.292;2023-09-18T03:55:24;11.70;;;10.17;;
1799;SDS011;919;48.274;12.292;2023-09-18T03:57:53;11.47;;;10.27;;
1799;SDS011;919;48.274;12.292;2023-09-18T04:00:21;10.07;;;9.17;;
1799;SDS011;919;48.274;12.292;2023-09-18T04:02:48;11.70;;;9.60;;
1799;SDS011;919;48.274;12.292;2023-09-18T04:05:15;11.80;;;9.27;;
1799;SDS011;919;48.274;12.292;2023-09-18T04:07:41;11.53;;;10.30;;
1799;SDS011;919;48.274;12.292;2023-09-18T04:10:11;11.20;;;9.40;;
1799;SDS011;919;48.274;12.292;2023-09-18T04:12:43;11.83;;;10.60;;
1799;SDS011;919;48.274;12.292;2023-09-18T04:15:12;10.23;;;9.13;;
1799;SDS011;919;48.274;12.292;2023-09-18T04:17:40;12.00;;;10.80;;
1799;SDS011;919;48.274;12.292;2023-09-18T04:20:07;10.33;;;9.43;;
1799;SDS011;919;48.274;12.292;2023-09-18T04:22:35;8.97;;;8.03;;
1799;SDS011;919;48.274;12.292;2023-09-18T04:25:01;11.80;;;9.53;;
1799;SDS011;919;48.274;12.292;2023-09-18T04:27:30;9.07;;;8.23;;
1799;SDS011;919;48.274;12.292;2023-09-18T04:29:56;9.07;;;8.27;;
1799;SDS011;919;48.274;12.292;2023-09-18T04:32:27;8.87;;;7.90;;
1799;SDS011;919;48.274;12.292;2023-09-18T04:34:54;11.07;;;9.13;;
1799;SDS011;919;48.274;12.292;2023-09-18T04:37:21;10.67;;;9.00;;
1799;SDS011;919;48.274;12.292;2023-09-18T04:39:47;10.13;;;9.13;;
1799;SDS011;919;48.274;12.292;2023-09-18T04:42:14;11.37;;;10.10;;
1799;SDS011;919;48.274;12.292;2023-09-18T04:44:41;12.30;;;10.50;;
1799;SDS011;919;48.274;12.292;2023-09-18T04:47:08;11.20;;;9.80;;
1799;SDS011;919;48.274;12.292;2023-09-18T04:49:36;12.97;;;11.07;;
1799;SDS011;919;48.274;12.292;2023-09-18T04:52:03;12.70;;;9.47;;
1799;SDS011;919;48.274;12.292;2023-09-18T04:54:30;9.23;;;8.33;;
1799;SDS011;919;48.274;12.292;2023-09-18T04:56:57;8.50;;;7.60;;
1799;SDS011;919;48.274;12.292;2023-09-18T04:59:23;9.80;;;8.90;;
1799;SDS011;919;48.274;12.292;2023-09-18T05:01:50;9.97;;;8.90;;
1799;SDS011;919;48.274;12.292;2023-09-18T05:04:17;13.17;;;10.10;;
1799;SDS011;919;48.274;12.292;2023-09-18T05:06:45;13.17;;;10.80;;
1799;SDS011;919;48.274;12.292;2023-09-18T05:09:12;12.00;;;9.40;;
1799;SDS011;919;48.274;12.292;2023-09-18T05:11:39;13.10;;;11.70;;
1799;SDS011;919;48.274;12.292;2023-09-18T05:14:07;11.83;;;10.60;;
1799;SDS011;919;48.274;12.292;2023-09-18T05:16:34;14.20;;;10.57;;
1799;SDS011;919;48.274;12.292;2023-09-18T05:19:00;12.87;;;11.50;;
1799;SDS011;919;48.274;12.292;2023-09-18T05:21:27;14.57;;;11.47;;
1799;SDS011;919;48.274;12.292;2023-09-18T05:23:56;13.40;;;10.43;;
1799;SDS011;919;48.274;12.292;2023-09-18T05:26:23;17.40;;;11.03;;
1799;SDS011;919;48.274;12.292;2023-09-18T05:28:51;16.23;;;10.30;;
1799;SDS011;919;48.274;12.292;2023-09-18T05:31:20;12.30;;;10.97;;
1799;SDS011;919;48.274;12.292;2023-09-18T05:33:47;12.47;;;10.60;;
1799;SDS011;919;48.274;12.292;2023-09-18T05:36:14;11.73;;;10.47;;
1799;SDS011;919;48.274;12.292;2023-09-18T05:38:41;13.73;;;11.10;;
1799;SDS011;919;48.274;12.292;2023-09-18T05:41:09;13.03;;;11.03;;
1799;SDS011;919;48.274;12.292;2023-09-18T05:43:36;14.70;;;11.77;;
1799;SDS011;919;48.274;12.292;2023-09-18T05:46:03;13.50;;;11.00;;
1799;SDS011;919;48.274;12.292;2023-09-18T05:48:30;11.07;;;9.97;;
1799;SDS011;919;48.274;12.292;2023-09-18T05:50:57;11.37;;;10.00;;
1799;SDS011;919;48.274;12.292;2023-09-18T05:53:25;12.03;;;10.93;;
1799;SDS011;919;48.274;12.292;2023-09-18T05:55:52;13.10;;;11.70;;
1799;SDS011;919;48.274;12.292;2023-09-18T05:58:20;11.13;;;10.03;;
1799;SDS011;919;48.274;12.292;2023-09-18T06:00:49;12.77;;;11.17;;
1799;SDS011;919;48.274;12.292;2023-09-18T06:03:16;13.10;;;10.77;;
1799;SDS011;919;48.274;12.292;2023-09-18T06:05:45;12.40;;;11.20;;
1799;SDS011;919;48.274;12.292;2023-09-18T06:08:11;15.80;;;11.77;;
1799;SDS011;919;48.274;12.292;2023-09-18T06:10:38;12.70;;;11.40;;
1799;SDS011;919;48.274;12.292;2023-09-18T06:13:05;13.67;;;12.27;;
1799;SDS011;919;48.274;12.292;2023-09-18T06:15:33;14.53;;;12.93;;
1799;SDS011;919;48.274;12.292;2023-09-18T06:18:00;16.77;;;12.70;;
1799;SDS011;919;48.274;12.292;2023-09-18T06:20:28;12.37;;;11.17;;
1799;SDS011;919;48.274;12.292;2023-09-18T06:22:55;15.43;;;11.90;;
1799;SDS011;919;48.274;12.292;2023-09-18T06:25:22;12.50;;;11.23;;
1799;SDS011;919;48.274;12.292;2023-09-18T06:27:49;13.13;;;11.67;;
1799;SDS011;919;48.274;12.292;2023-09-18T06:30:17;15.60;;;12.53;;
1799;SDS011;919;48.274;12.292;2023-09-18T06:32:45;12.27;;;11.07;;
1799;SDS011;919;48.274;12.292;2023-09-18T06:35:12;12.47;;;11.17;;
1799;SDS011;919;48.274;12.292;2023-09-18T06:37:39;11.80;;;10.57;;
1799;SDS011;919;48.274;12.292;2023-09-18T06:40:06;12.30;;;11.07;;
1799;SDS011;919;48.274;12.292;2023-09-18T06:42:34;16.57;;;12.33;;
1799;SDS011;919;48.274;12.292;2023-09-18T06:45:01;12.43;;;11.23;;
1799;SDS011;919;48.274;12.292;2023-09-18T06:47:28;11.17;;;10.07;;
1799;SDS011;919;48.274;12.292;2023-09-18T06:49:56;12.47;;;11.27;;
1799;SDS011;919;48.274;12.292;2023-09-18T06:52:23;13.73;;;11.87;;
1799;SDS011;919;48.274;12.292;2023-09-18T06:54:50;11.07;;;9.97;;
1799;SDS011;919;48.274;12.292;2023-09-18T06:57:17;10.63;;;9.60;;
1799;SDS011;919;48.274;12.292;2023-09-18T06:59:46;9.37;;;8.47;;
1799;SDS011;919;48.274;12.292;2023-09-18T07:02:13;10.17;;;9.00;;
1799;SDS011;919;48.274;12.292;2023-09-18T07:04:40;9.90;;;8.50;;
1799;SDS011;919;48.274;12.292;2023-09-18T07:07:11;8.70;;;7.90;;
1799;SDS011;919;48.274;12.292;2023-09-18T07:09:38;9.70;;;8.80;;
1799;SDS011;919;48.274;12.292;2023-09-18T07:12:06;9.23;;;8.33;;
1799;SDS011;919;48.274;12.292;2023-09-18T07:14:33;9.70;;;8.80;;
1799;SDS011;919;48.274;12.292;2023-09-18T07:17:00;10.93;;;9.13;;
1799;SDS011;919;48.274;12.292;2023-09-18T07:19:27;10.07;;;8.70;;
1799;SDS011;919;48.274;12.292;2023-09-18T07:21:54;9.17;;;8.20;;
1799;SDS011;919;48.274;12.292;2023-09-18T07:24:22;8.97;;;8.20;;
1799;SDS011;919;48.274;12.292;2023-09-18T07:26:49;8.03;;;7.30;;
1799;SDS011;919;48.274;12.292;2023-09-18T07:29:15;9.07;;;8.17;;
1799;SDS011;919;48.274;12.292;2023-09-18T07:31:43;9.77;;;8.80;;
1799;SDS011;919;48.274;12.292;2023-09-18T07:34:10;8.67;;;7.87;;
1799;SDS011;919;48.274;12.292;2023-09-18T07:36:37;8.57;;;7.77;;
1799;SDS011;919;48.274;12.292;2023-09-18T07:39:04;8.50;;;7.70;;
1799;SDS011;919;48.274;12.292;2023-09-18T07:41:32;8.57;;;7.87;;
1799;SDS011;919;48.274;12.292;2023-09-18T07:43:59;9.50;;;8.60;;
1799;SDS011;919;48.274;12.292;2023-09-18T07:46:25;8.33;;;7.53;;
1799;SDS011;919;48.274;12.292;2023-09-18T07:48:52;8.20;;;7.30;;
1799;SDS011;919;48.274;12.292;2023-09-18T07:51:19;7.17;;;6.57;;
1799;SDS011;919;48.274;12.292;2023-09-18T07:53:46;6.73;;;6.13;;
1799;SDS011;919;48.274;12.292;2023-09-18T07:56:13;7.37;;;6.67;;
1799;SDS011;919;48.274;12.292;2023-09-18T07:58:41;17.40;;;8.80;;
1799;SDS011;919;48.274;12.292;2023-09-18T08:01:08;9.30;;;8.40;;
1799;SDS011;919;48.274;12.292;2023-09-18T08:03:35;8.60;;;7.80;;
1799;SDS011;919;48.274;12.292;2023-09-18T08:06:02;9.00;;;7.60;;
1799;SDS011;919;48.274;12.292;2023-09-18T08:08:29;9.37;;;8.40;;
1799;SDS011;919;48.274;12.292;2023-09-18T08:10:58;11.60;;;8.50;;
1799;SDS011;919;48.274;12.292;2023-09-18T08:13:26;11.33;;;9.50;;
1799;SDS011;919;48.274;12.292;2023-09-18T08:15:55;12.70;;;8.93;;
1799;SDS011;919;48.274;12.292;2023-09-18T08:18:22;8.87;;;7.90;;
1799;SDS011;919;48.274;12.292;2023-09-18T08:20:51;9.60;;;8.73;;
1799;SDS011;919;48.274;12.292;2023-09-18T08:23:19;8.93;;;8.03;;
1799;SDS011;919;48.274;12.292;2023-09-18T08:25:46;8.60;;;7.80;;
1799;SDS011;919;48.274;12.292;2023-09-18T08:28:13;8.73;;;7.63;;
1799;SDS011;919;48.274;12.292;2023-09-18T08:30:41;7.50;;;6.80;;
1799;SDS011;919;48.274;12.292;2023-09-18T08:33:11;7.70;;;6.90;;
1799;SDS011;919;48.274;12.292;2023-09-18T08:35:37;8.17;;;7.47;;
1799;SDS011;919;48.274;12.292;2023-09-18T08:38:04;9.60;;;8.13;;
1799;SDS011;919;48.274;12.292;2023-09-18T08:40:32;8.13;;;7.33;;
1799;SDS011;919;48.274;12.292;2023-09-18T08:42:59;7.87;;;7.17;;
1799;SDS011;919;48.274;12.292;2023-09-18T08:45:30;8.23;;;7.20;;
1799;SDS011;919;48.274;12.292;2023-09-18T08:48:02;7.63;;;6.27;;
1799;SDS011;919;48.274;12.292;2023-09-18T08:50:31;6.30;;;5.80;;
1799;SDS011;919;48.274;12.292;2023-09-18T08:53:05;5.57;;;5.17;;
1799;SDS011;919;48.274;12.292;2023-09-18T08:55:33;6.17;;;5.67;;
1799;SDS011;919;48.274;12.292;2023-09-18T08:58:00;10.33;;;7.30;;
1799;SDS011;919;48.274;12.292;2023-09-18T09:00:27;6.73;;;6.03;;
1799;SDS011;919;48.274;12.292;2023-09-18T09:02:54;6.60;;;6.00;;
1799;SDS011;919;48.274;12.292;2023-09-18T09:05:21;6.67;;;5.80;;
1799;SDS011;919;48.274;12.292;2023-09-18T09:07:50;6.80;;;6.20;;
1799;SDS011;919;48.274;12.292;2023-09-18T09:10:17;5.47;;;4.97;;
1799;SDS011;919;48.274;12.292;2023-09-18T09:12:55;7.87;;;5.70;;
1799;SDS011;919;48.274;12.292;2023-09-18T09:15:23;7.07;;;5.30;;
1799;SDS011;919;48.274;12.292;2023-09-18T09:17:51;10.73;;;6.17;;
1799;SDS011;919;48.274;12.292;2023-09-18T09:20:19;9.87;;;4.93;;
1799;SDS011;919;48.274;12.292;2023-09-18T09:22:46;5.57;;;4.70;;
1799;SDS011;919;48.274;12.292;2023-09-18T09:25:24;8.40;;;5.60;;
1799;SDS011;919;48.274;12.292;2023-09-18T09:27:52;5.70;;;5.13;;
1799;SDS011;919;48.274;12.292;2023-09-18T09:30:20;5.30;;;4.50;;
1799;SDS011;919;48.274;12.292;2023-09-18T09:32:48;4.60;;;4.20;;
1799;SDS011;919;48.274;12.292;2023-09-18T09:35:23;4.87;;;4.13;;
1799;SDS011;919;48.274;12.292;2023-09-18T09:37:52;5.60;;;4.60;;
1799;SDS011;919;48.274;12.292;2023-09-18T09:40:21;4.17;;;3.80;;
1799;SDS011;919;48.274;12.292;2023-09-18T09:42:51;6.50;;;4.90;;
1799;SDS011;919;48.274;12.292;2023-09-18T09:45:25;4.00;;;3.60;;
1799;SDS011;919;48.274;12.292;2023-09-18T09:47:53;5.00;;;4.50;;
1799;SDS011;919;48.274;12.292;2023-09-18T09:50:20;6.77;;;4.60;;
1799;SDS011;919;48.274;12.292;2023-09-18T09:52:48;4.67;;;4.27;;
1799;SDS011;919;48.274;12.292;2023-09-18T09:55:19;5.00;;;4.60;;
1799;SDS011;919;48.274;12.292;2023-09-18T09:57:49;4.50;;;4.10;;
1799;SDS011;919;48.274;12.292;2023-09-18T10:00:18;4.03;;;3.73;;
1799;SDS011;919;48.274;12.292;2023-09-18T10:02:52;6.83;;;4.80;;
1799;SDS011;919;48.274;12.292;2023-09-18T10:05:22;5.77;;;4.57;;
1799;SDS011;919;48.274;12.292;2023-09-18T10:07:51;5.83;;;4.43;;
1799;SDS011;919;48.274;12.292;2023-09-18T10:10:18;5.40;;;4.40;;
1799;SDS011;919;48.274;12.292;2023-09-18T10:12:45;6.37;;;5.00;;
1799;SDS011;919;48.274;12.292;2023-09-18T10:15:15;11.83;;;4.30;;
1799;SDS011;919;48.274;12.292;2023-09-18T10:17:45;5.57;;;4.90;;
1799;SDS011;919;48.274;12.292;2023-09-18T10:20:14;14.67;;;5.07;;
1799;SDS011;919;48.274;12.292;2023-09-18T10:22:45;9.03;;;5.00;;
1799;SDS011;919;48.274;12.292;2023-09-18T10:25:17;8.20;;;4.60;;
1799;SDS011;919;48.274;12.292;2023-09-18T10:27:49;5.00;;;4.50;;
1799;SDS011;919;48.274;12.292;2023-09-18T10:30:18;5.80;;;5.17;;
1799;SDS011;919;48.274;12.292;2023-09-18T10:32:48;6.07;;;5.57;;
1799;SDS011;919;48.274;12.292;2023-09-18T10:35:15;6.00;;;5.33;;
1799;SDS011;919;48.274;12.292;2023-09-18T10:37:43;7.23;;;5.03;;
1799;SDS011;919;48.274;12.292;2023-09-18T10:40:11;6.33;;;5.20;;
1799;SDS011;919;48.274;12.292;2023-09-18T10:42:39;13.83;;;4.97;;
1799;SDS011;919;48.274;12.292;2023-09-18T10:45:08;5.57;;;5.07;;
1799;SDS011;919;48.274;12.292;2023-09-18T10:47:38;5.60;;;5.00;;
1799;SDS011;919;48.274;12.292;2023-09-18T10:50:07;6.00;;;5.40;;
1799;SDS011;919;48.274;12.292;2023-09-18T10:52:35;5.63;;;4.53;;
1799;SDS011;919;48.274;12.292;2023-09-18T10:55:02;5.47;;;5.07;;
1799;SDS011;919;48.274;12.292;2023-09-18T10:57:32;5.73;;;5.23;;
1799;SDS011;919;48.274;12.292;2023-09-18T11:00:00;7.20;;;6.47;;
1799;SDS011;919;48.274;12.292;2023-09-18T11:02:39;6.73;;;6.13;;
1799;SDS011;919;48.274;12.292;2023-09-18T11:05:07;8.70;;;5.83;;
1799;SDS011;919;48.274;12.292;2023-09-18T11:07:34;9.60;;;6.50;;
1799;SDS011;919;48.274;12.292;2023-09-18T11:10:00;7.73;;;5.03;;
1799;SDS011;919;48.274;12.292;2023-09-18T11:12:54;6.37;;;5.57;;
1799;SDS011;919;48.274;12.292;2023-09-18T11:15:32;8.67;;;5.40;;
1799;SDS011;919;48.274;12.292;2023-09-18T11:18:02;6.13;;;5.20;;
1799;SDS011;919;48.274;12.292;2023-09-18T11:20:29;5.00;;;4.60;;
1799;SDS011;919;48.274;12.292;2023-09-18T11:22:57;6.93;;;4.77;;
1799;SDS011;919;48.274;12.292;2023-09-18T11:25:29;5.90;;;5.20;;
1799;SDS011;919;48.274;12.292;2023-09-18T11:28:06;6.80;;;4.70;;
1799;SDS011;919;48.274;12.292;2023-09-18T11:30:34;8.77;;;4.97;;
1799;SDS011;919;48.274;12.292;2023-09-18T11:33:05;6.43;;;5.50;;
1799;SDS011;919;48.274;12.292;2023-09-18T11:35:34;7.90;;;5.30;;
1799;SDS011;919;48.274;12.292;2023-09-18T11:38:03;8.37;;;5.87;;
1799;SDS011;919;48.274;12.292;2023-09-18T11:40:35;6.30;;;5.17;;
1799;SDS011;919;48.274;12.292;2023-09-18T11:43:20;7.00;;;5.10;;
1799;SDS011;919;48.274;12.292;2023-09-18T11:45:52;7.67;;;5.20;;
1799;SDS011;919;48.274;12.292;2023-09-18T11:48:22;5.97;;;5.20;;
1799;SDS011;919;48.274;12.292;2023-09-18T11:50:53;7.37;;;4.97;;
1799;SDS011;919;48.274;12.292;2023-09-18T11:53:20;8.10;;;5.70;;
1799;SDS011;919;48.274;12.292;2023-09-18T11:55:49;9.23;;;4.70;;
1799;SDS011;919;48.274;12.292;2023-09-18T11:58:16;9.10;;;4.63;;
1799;SDS011;919;48.274;12.292;2023-09-18T12:00:45;5.23;;;4.00;;
1799;SDS011;919;48.274;12.292;2023-09-18T12:03:18;6.83;;;4.30;;
1799;SDS011;919;48.274;12.292;2023-09-18T12:05:58;10.00;;;5.10;;
1799;SDS011;919;48.274;12.292;2023-09-18T12:08:26;7.20;;;4.63;;
1799;SDS011;919;48.274;12.292;2023-09-18T12:10:56;4.50;;;4.10;;
1799;SDS011;919;48.274;12.292;2023-09-18T12:13:24;5.67;;;3.40;;
1799;SDS011;919;48.274;12.292;2023-09-18T12:15:55;6.53;;;4.23;;
1799;SDS011;919;48.274;12.292;2023-09-18T12:18:24;10.67;;;4.93;;
1799;SDS011;919;48.274;12.292;2023-09-18T12:20:53;5.87;;;3.30;;
1799;SDS011;919;48.274;12.292;2023-09-18T12:23:22;7.70;;;3.27;;
1799;SDS011;919;48.274;12.292;2023-09-18T12:25:50;8.53;;;3.80;;
1799;SDS011;919;48.274;12.292;2023-09-18T12:28:25;9.30;;;4.30;;
1799;SDS011;919;48.274;12.292;2023-09-18T12:30:53;5.23;;;3.93;;
1799;SDS011;919;48.274;12.292;2023-09-18T12:33:21;6.87;;;3.60;;
1799;SDS011;919;48.274;12.292;2023-09-18T12:35:49;6.57;;;3.63;;
1799;SDS011;919;48.274;12.292;2023-09-18T12:38:16;15.43;;;4.00;;
1799;SDS011;919;48.274;12.292;2023-09-18T12:40:45;5.73;;;3.97;;
1799;SDS011;919;48.274;12.292;2023-09-18T12:43:12;6.47;;;3.27;;
1799;SDS011;919;48.274;12.292;2023-09-18T12:45:41;11.03;;;3.07;;
1799;SDS011;919;48.274;12.292;2023-09-18T12:48:08;12.53;;;3.20;;
1799;SDS011;919;48.274;12.292;2023-09-18T12:50:37;6.97;;;3.20;;
1799;SDS011;919;48.274;12.292;2023-09-18T12:53:10;4.00;;;3.30;;
1799;SDS011;919;48.274;12.292;2023-09-18T12:55:38;6.43;;;2.90;;
1799;SDS011;919;48.274;12.292;2023-09-18T12:58:09;3.63;;;2.07;;
1799;SDS011;919;48.274;12.292;2023-09-18T13:00:37;11.87;;;2.97;;
1799;SDS011;919;48.274;12.292;2023-09-18T13:03:12;5.73;;;2.60;;
1799;SDS011;919;48.274;12.292;2023-09-18T13:05:39;4.80;;;2.13;;
1799;SDS011;919;48.274;12.292;2023-09-18T13:08:06;7.80;;;2.33;;
1799;SDS011;919;48.274;12.292;2023-09-18T13:10:43;3.40;;;2.10;;
1799;SDS011;919;48.274;12.292;2023-09-18T13:13:16;2.90;;;2.20;;
1799;SDS011;919;48.274;12.292;2023-09-18T13:15:44;5.83;;;1.80;;
1799;SDS011;919;48.274;12.292;2023-09-18T13:18:12;5.03;;;1.57;;
1799;SDS011;919;48.274;12.292;2023-09-18T13:20:40;5.53;;;2.13;;
1799;SDS011;919;48.274;12.292;2023-09-18T13:23:07;2.63;;;2.17;;
1799;SDS011;919;48.274;12.292;2023-09-18T13:25:35;3.27;;;1.80;;
1799;SDS011;919;48.274;12.292;2023-09-18T13:28:03;4.20;;;1.63;;
1799;SDS011;919;48.274;12.292;2023-09-18T13:30:32;4.17;;;1.27;;
1799;SDS011;919;48.274;12.292;2023-09-18T13:33:04;1.80;;;1.30;;
1799;SDS011;919;48.274;12.292;2023-09-18T13:35:32;2.03;;;1.47;;
1799;SDS011;919;48.274;12.292;2023-09-18T13:38:00;2.50;;;1.23;;
1799;SDS011;919;48.274;12.292;2023-09-18T13:40:27;2.67;;;1.20;;
1799;SDS011;919;48.274;12.292;2023-09-18T13:42:54;1.87;;;1.43;;
1799;SDS011;919;48.274;12.292;2023-09-18T13:45:20;1.30;;;1.20;;
1799;SDS011;919;48.274;12.292;2023-09-18T13:47:49;3.07;;;1.40;;
1799;SDS011;919;48.274;12.292;2023-09-18T13:50:15;2.67;;;1.00;;
1799;SDS011;919;48.274;12.292;2023-09-18T13:52:42;2.87;;;1.60;;
1799;SDS011;919;48.274;12.292;2023-09-18T13:55:09;3.83;;;1.20;;
1799;SDS011;919;48.274;12.292;2023-09-18T13:57:36;1.13;;;0.90;;
1799;SDS011;919;48.274;12.292;2023-09-18T14:00:05;1.33;;;1.00;;
1799;SDS011;919;48.274;12.292;2023-09-18T14:02:35;1.80;;;1.07;;
1799;SDS011;919;48.274;12.292;2023-09-18T14:05:04;1.20;;;0.90;;
1799;SDS011;919;48.274;12.292;2023-09-18T14:07:31;1.90;;;1.03;;
1799;SDS011;919;48.274;12.292;2023-09-18T14:09:58;2.10;;;0.93;;
1799;SDS011;919;48.274;12.292;2023-09-18T14:12:28;2.60;;;1.20;;
1799;SDS011;919;48.274;12.292;2023-09-18T14:14:56;5.00;;;1.10;;
1799;SDS011;919;48.274;12.292;2023-09-18T14:17:23;7.90;;;1.63;;
1799;SDS011;919;48.274;12.292;2023-09-18T14:19:50;5.63;;;1.00;;
1799;SDS011;919;48.274;12.292;2023-09-18T14:22:19;2.87;;;1.37;;
1799;SDS011;919;48.274;12.292;2023-09-18T14:24:46;1.10;;;1.00;;
1799;SDS011;919;48.274;12.292;2023-09-18T14:27:13;1.43;;;1.30;;
1799;SDS011;919;48.274;12.292;2023-09-18T14:29:40;1.90;;;1.10;;
1799;SDS011;919;48.274;12.292;2023-09-18T14:32:07;2.50;;;1.00;;
1799;SDS011;919;48.274;12.292;2023-09-18T14:34:34;2.23;;;0.80;;
1799;SDS011;919;48.274;12.292;2023-09-18T14:37:01;1.23;;;1.10;;
1799;SDS011;919;48.274;12.292;2023-09-18T14:39:30;1.20;;;1.10;;
1799;SDS011;919;48.274;12.292;2023-09-18T14:41:57;6.60;;;1.50;;
1799;SDS011;919;48.274;12.292;2023-09-18T14:44:24;1.87;;;1.00;;
1799;SDS011;919;48.274;12.292;2023-09-18T14:46:52;2.13;;;1.10;;
1799;SDS011;919;48.274;12.292;2023-09-18T14:49:19;2.27;;;1.10;;
1799;SDS011;919;48.274;12.292;2023-09-18T14:51:46;2.93;;;1.67;;
1799;SDS011;919;48.274;12.292;2023-09-18T14:54:14;3.37;;;1.00;;
1799;SDS011;919;48.274;12.292;2023-09-18T14:56:42;5.27;;;1.70;;
1799;SDS011;919;48.274;12.292;2023-09-18T14:59:11;2.10;;;1.07;;
1799;SDS011;919;48.274;12.292;2023-09-18T15:01:37;4.00;;;1.30;;
1799;SDS011;919;48.274;12.292;2023-09-18T15:04:07;2.20;;;1.10;;
1799;SDS011;919;48.274;12.292;2023-09-18T15:06:35;2.83;;;1.37;;
1799;SDS011;919;48.274;12.292;2023-09-18T15:09:01;2.30;;;0.87;;
1799;SDS011;919;48.274;12.292;2023-09-18T15:11:29;1.20;;;1.10;;
1799;SDS011;919;48.274;12.292;2023-09-18T15:13:57;1.60;;;1.03;;
1799;SDS011;919;48.274;12.292;2023-09-18T15:16:24;1.00;;;0.90;;